Jackson, Wisconsin
Current Conditions -  °F | °C
As of 3:35 PM on Monday 24 Nov 2014 (Local Time) from KETB Reporting Station
Light Snow Light Snow  
Wind Chill: 22°   Ceiling: 800
Heat Index: 32°   Visibility: 0.75mi
Dew Point: 28°   Wind: 15mph
Humidity: 87%   Direction: 250°WSW
Pressure: 29.33"   Gusts: 26mph
Location:  43.32°N, 88.17°W
Report Text: KETB 242135Z AUTO 25013G23KT 3/4SM -SN OVC008 00/M02 A2933 RMK AO2
Loading
Personal Weather Stations






























Interactive Weather Map New forecast layout! Learn more

10-Day Weather Forecast

Advertisements
Track Severe Weather on mobile